Time;durP1;ratioP1;P1;durP2;ratioP2;P2;SDS_P1;SDS_P2;PMS_P1;PMS_P2;Temp;Humidity;BMP_temperature;BMP_pressure;BME280_temperature;BME280_humidity;BME280_pressure;Samples;Min_cycle;Max_cycle;Signal;HPM_P1;HPM_P2
2021/11/10 00:02:06;;;;;;;3.25;1.70;;;;;;;0.96;56.95;100901.38;4941203;29;20043;-47
2021/11/10 00:04:33;;;;;;;4.15;2.03;;;;;;;1.01;56.68;100910.03;4933995;29;20051;-48
2021/11/10 00:06:59;;;;;;;6.50;3.53;;;;;;;1.03;56.74;100902.41;4933795;29;20130;-45
2021/11/10 00:09:25;;;;;;;4.65;2.78;;;;;;;1.03;56.63;100913.53;4932193;29;20416;-45
2021/11/10 00:11:53;;;;;;;6.20;3.10;;;;;;;1.04;56.26;100911.81;4899941;29;20126;-52
2021/11/10 00:14:20;;;;;;;8.52;4.25;;;;;;;1.02;56.17;100923.72;4902721;29;20071;-48
2021/11/10 00:16:46;;;;;;;4.82;2.10;;;;;;;1.03;56.42;100922.91;4920557;29;20094;-49
2021/11/10 00:19:12;;;;;;;7.00;2.67;;;;;;;1.06;56.24;100933.19;4915585;29;20054;-48
2021/11/10 00:21:38;;;;;;;2.55;1.60;;;;;;;1.05;55.80;100927.19;4932376;29;20114;-46
2021/11/10 00:24:05;;;;;;;3.03;1.70;;;;;;;1.12;56.08;100939.34;4904671;29;20146;-48
2021/11/10 00:26:31;;;;;;;4.35;1.52;;;;;;;1.08;55.53;100934.97;4933257;29;20472;-48
2021/11/10 00:28:57;;;;;;;3.65;1.73;;;;;;;1.16;56.08;100938.56;4930142;29;20130;-49
2021/11/10 00:31:22;;;;;;;2.58;1.55;;;;;;;1.07;55.80;100924.69;4915054;29;20039;-45
2021/11/10 00:33:49;;;;;;;3.20;1.50;;;;;;;1.15;55.72;100941.97;4915117;29;20043;-47
2021/11/10 00:36:16;;;;;;;2.88;1.13;;;;;;;1.13;55.69;100940.19;4932786;29;20043;-48
2021/11/10 00:38:44;;;;;;;2.08;0.75;;;;;;;1.07;55.65;100947.75;4933845;29;20130;-45
2021/11/10 00:41:10;;;;;;;2.30;1.20;;;;;;;1.00;55.40;100941.59;4932100;29;20055;-49
2021/11/10 00:43:36;;;;;;;1.38;0.80;;;;;;;0.95;55.62;100940.63;4932387;29;20397;-43
2021/11/10 00:46:02;;;;;;;1.30;0.80;;;;;;;0.94;55.50;100951.72;4914896;29;20078;-47
2021/11/10 00:48:28;;;;;;;2.22;0.93;;;;;;;0.96;55.61;100957.72;4928695;29;20059;-44
2021/11/10 00:50:54;;;;;;;1.67;1.17;;;;;;;0.91;54.94;100956.75;4945610;29;20138;-50
2021/11/10 00:53:20;;;;;;;2.33;1.40;;;;;;;0.87;55.16;100947.25;4946404;29;20588;-47
2021/11/10 00:55:46;;;;;;;1.73;1.00;;;;;;;0.96;54.94;100967.97;4944958;29;20043;-49
2021/11/10 00:58:12;;;;;;;3.08;1.08;;;;;;;0.89;54.97;100960.94;4935044;29;20730;-46
2021/11/10 01:00:38;;;;;;;2.20;0.95;;;;;;;0.99;54.94;100972.31;4923567;29;20072;-45
2021/11/10 01:03:06;;;;;;;1.73;0.85;;;;;;;0.99;55.06;100980.00;4919851;29;20442;-48
2021/11/10 01:05:34;;;;;;;1.20;0.85;;;;;;;0.94;55.11;100981.56;4918833;29;20396;-48
2021/11/10 01:08:01;;;;;;;2.75;1.05;;;;;;;0.79;55.62;100977.78;4934249;29;20110;-48
2021/11/10 01:10:28;;;;;;;1.70;0.90;;;;;;;0.66;55.45;100969.75;4922649;29;20051;-48
2021/11/10 01:12:54;;;;;;;1.67;0.80;;;;;;;0.46;56.06;100969.22;4902633;29;20058;-51
2021/11/10 01:15:20;;;;;;;1.48;0.70;;;;;;;0.35;56.37;100962.94;4932419;29;20054;-50
2021/11/10 01:17:49;;;;;;;2.60;1.13;;;;;;;0.24;56.60;100966.91;4918192;29;20431;-49
2021/11/10 01:20:16;;;;;;;2.00;0.95;;;;;;;0.16;57.00;100963.28;4917312;29;20472;-44
2021/11/10 01:22:43;;;;;;;2.42;0.88;;;;;;;-0.04;57.33;100937.13;4900489;29;20040;-47
2021/11/10 01:25:10;;;;;;;3.00;0.90;;;;;;;-0.01;57.40;100973.91;4926950;29;20044;-48
2021/11/10 01:27:37;;;;;;;3.30;0.90;;;;;;;-0.07;57.50;100962.63;4928664;29;20044;-47
2021/11/10 01:30:05;;;;;;;2.17;0.95;;;;;;;-0.18;58.01;100957.19;4908160;29;20090;-46
2021/11/10 01:32:32;;;;;;;2.22;0.90;;;;;;;-0.16;58.32;100970.03;4916512;29;20068;-48
2021/11/10 01:34:59;;;;;;;2.15;1.05;;;;;;;-0.37;58.14;100949.81;4899669;29;20464;-53
2021/11/10 01:37:27;;;;;;;1.75;0.68;;;;;;;-0.24;58.64;100968.91;4915817;29;20036;-47
2021/11/10 01:39:53;;;;;;;7.03;0.98;;;;;;;-0.30;58.32;100974.72;4916672;29;20051;-45
2021/11/10 01:42:25;;;;;;;3.43;0.80;;;;;;;-0.41;58.67;100968.41;4911718;29;20760;-46
2021/11/10 01:44:51;;;;;;;;;;;;;;;-0.34;58.71;100989.91;4919130;29;20299;-45
2021/11/10 01:47:17;;;;;;;2.30;0.80;;;;;;;-0.35;58.58;100985.59;4920449;29;19984;-48
2021/11/10 01:49:44;;;;;;;4.68;0.73;;;;;;;-0.27;58.81;100996.94;4917496;29;20079;-47
2021/11/10 01:52:12;;;;;;;1.73;1.00;;;;;;;-0.14;58.85;101001.59;4913829;29;20138;-48
2021/11/10 01:54:39;;;;;;;2.20;0.77;;;;;;;0.01;58.67;100999.47;4912977;29;20048;-47
2021/11/10 01:57:11;;;;;;;2.65;0.82;;;;;;;0.05;58.59;100987.69;4931296;29;20538;-46
2021/11/10 02:00:07;;;;;;;2.40;0.80;;;;;;;0.24;58.52;101008.69;4913075;29;20110;-48
2021/11/10 02:02:47;;;;;;;2.42;0.90;;;;;;;0.30;57.99;101013.97;4931851;29;20483;-48
2021/11/10 02:05:17;;;;;;;1.52;0.88;;;;;;;0.26;57.95;100991.69;4920483;29;20120;-48
2021/11/10 02:07:45;;;;;;;1.98;0.70;;;;;;;0.46;58.07;101004.19;4936906;29;20754;-44
2021/11/10 02:10:12;;;;;;;1.83;0.80;;;;;;;0.37;57.87;100981.75;4948690;29;20046;-47
2021/11/10 02:12:39;;;;;;;4.50;1.05;;;;;;;0.61;57.71;101013.13;4914605;29;20044;-48
2021/11/10 02:15:11;;;;;;;2.30;0.90;;;;;;;0.63;57.92;101020.88;4913910;29;20052;-48
2021/11/10 02:17:37;;;;;;;1.45;0.90;;;;;;;0.66;57.69;101019.25;4922622;29;20134;-47
2021/11/10 02:20:09;;;;;;;2.33;0.90;;;;;;;0.67;57.76;101017.56;4908342;29;20524;-46
2021/11/10 02:22:38;;;;;;;7.22;0.80;;;;;;;0.73;57.39;101017.72;4920050;29;20051;-48
2021/11/10 02:25:09;;;;;;;1.80;0.98;;;;;;;0.71;57.69;101009.13;4948975;29;20516;-45
2021/11/10 02:27:36;;;;;;;1.05;0.80;;;;;;;0.80;57.33;101022.16;4909235;29;20127;-49
2021/11/10 02:30:21;;;;;;;1.25;0.80;;;;;;;0.75;57.72;101019.47;4933618;29;20040;-46
2021/11/10 02:32:49;;;;;;;2.45;1.10;;;;;;;0.77;57.60;101028.06;4901254;29;20054;-47
2021/11/10 02:35:18;;;;;;;4.88;1.02;;;;;;;0.77;57.64;101028.06;4933041;29;20581;-51
2021/11/10 02:37:46;;;;;;;3.60;1.05;;;;;;;0.76;57.49;101031.47;4920450;29;20061;-49
2021/11/10 02:40:12;;;;;;;4.15;0.90;;;;;;;0.70;57.63;101018.50;4916739;29;20071;-52
2021/11/10 02:42:39;;;;;;;8.93;1.63;;;;;;;0.81;57.48;101035.00;4934061;29;20448;-50
2021/11/10 02:45:07;;;;;;;3.03;0.80;;;;;;;0.74;57.52;101002.38;4919549;29;20043;-49
2021/11/10 02:47:34;;;;;;;1.25;0.70;;;;;;;0.93;57.42;101023.34;4920639;29;20036;-51
2021/11/10 02:50:00;;;;;;;1.80;0.93;;;;;;;0.86;57.80;101035.13;4924762;29;20542;-48
2021/11/10 02:52:26;;;;;;;3.00;1.08;;;;;;;0.84;57.76;101029.09;4919648;29;20060;-47
2021/11/10 02:54:54;;;;;;;4.72;0.73;;;;;;;0.81;57.73;101021.34;4932412;29;20052;-49
2021/11/10 02:57:22;;;;;;;1.92;0.95;;;;;;;0.78;57.69;101034.06;4934403;29;20563;-47
2021/11/10 02:59:48;;;;;;;2.03;0.90;;;;;;;0.79;58.34;101036.66;4947999;29;20110;-53
2021/11/10 03:02:26;;;;;;;1.70;1.23;;;;;;;0.74;58.24;101024.53;4913287;29;20119;-49
2021/11/10 03:04:54;;;;;;;4.18;0.95;;;;;;;0.85;58.67;101039.38;4892005;29;20094;-46
2021/11/10 03:07:20;;;;;;;1.67;0.90;;;;;;;0.84;58.06;101034.19;4925903;29;20099;-49
2021/11/10 03:09:46;;;;;;;1.00;0.90;;;;;;;0.89;57.96;101047.16;4932955;29;20047;-47
2021/11/10 03:12:19;;;;;;;1.83;0.80;;;;;;;0.92;58.16;101045.53;4918777;29;20091;-45
2021/11/10 03:14:46;;;;;;;3.70;0.75;;;;;;;0.93;57.95;101044.72;4921520;29;20043;-48
2021/11/10 03:17:16;;;;;;;1.65;0.80;;;;;;;0.93;58.05;101044.72;4933570;29;20050;-47
2021/11/10 03:19:43;;;;;;;1.77;0.80;;;;;;;0.88;58.09;101045.41;4924816;29;20884;-48
2021/11/10 03:22:10;;;;;;;2.97;0.80;;;;;;;0.95;58.02;101052.41;4926820;29;20043;-45
2021/11/10 03:24:39;;;;;;;3.70;1.02;;;;;;;0.95;58.34;101048.16;4920364;29;20038;-48
2021/11/10 03:27:07;;;;;;;1.92;1.02;;;;;;;0.81;58.21;101026.44;4919700;29;20053;-50
2021/11/10 03:29:34;;;;;;;1.77;0.90;;;;;;;0.97;57.99;101050.75;4932908;29;20511;-52
2021/11/10 03:32:03;;;;;;;4.22;0.93;;;;;;;1.05;58.20;101054.38;4924428;29;20129;-48
2021/11/10 03:34:28;;;;;;;1.75;0.80;;;;;;;1.04;57.95;101048.41;4936061;29;20035;-47
2021/11/10 03:36:54;;;;;;;1.25;0.95;;;;;;;1.10;57.87;101051.09;4915167;29;20047;-49
2021/11/10 03:39:22;;;;;;;3.25;1.10;;;;;;;1.15;57.54;101041.84;4905312;29;20051;-52
2021/11/10 03:41:47;;;;;;;1.80;1.08;;;;;;;1.16;57.68;101040.16;4933150;29;20055;-48
2021/11/10 03:44:15;;;;;;;2.85;1.00;;;;;;;1.14;57.76;101035.00;4932045;29;20512;-48
2021/11/10 03:46:42;;;;;;;2.53;1.10;;;;;;;1.12;57.45;101035.78;4923972;29;20047;-49
2021/11/10 03:49:11;;;;;;;;;;;;;;;1.15;57.35;101046.13;4915583;29;20114;-51
2021/11/10 03:51:38;;;;;;;2.78;1.10;;;;;;;1.04;57.68;101017.69;4922081;29;20399;-47
2021/11/10 03:54:04;;;;;;;6.57;1.10;;;;;;;1.13;57.44;101037.53;4896816;29;20055;-48
2021/11/10 03:56:33;;;;;;;2.55;1.27;;;;;;;1.16;57.21;101038.47;4905073;29;20610;-47
2021/11/10 03:58:59;;;;;;;4.75;1.92;;;;;;;1.18;57.19;101041.94;4921605;29;20047;-50
2021/11/10 04:01:27;;;;;;;3.85;1.38;;;;;;;1.21;56.84;101051.38;4912516;29;20451;-50
2021/11/10 04:03:56;;;;;;;2.58;1.23;;;;;;;1.19;57.04;101047.94;4918329;29;20070;-49
2021/11/10 04:06:23;;;;;;;3.33;1.30;;;;;;;1.24;57.21;101057.47;4915602;29;20059;-48
2021/11/10 04:08:51;;;;;;;2.05;1.40;;;;;;;1.19;56.63;101050.50;4936278;29;20594;-45
2021/11/10 04:11:21;;;;;;;2.20;1.00;;;;;;;1.07;57.04;101053.59;4914343;29;20043;-47
2021/11/10 04:13:47;;;;;;;1.33;1.10;;;;;;;1.03;57.12;101061.16;4883457;29;20051;-49
2021/11/10 04:16:19;;;;;;;1.98;0.93;;;;;;;1.02;56.90;101056.88;4899627;29;20043;-48
2021/11/10 04:18:53;;;;;;;3.83;1.00;;;;;;;1.02;56.94;101051.75;4921853;29;20051;-46
2021/11/10 04:21:22;;;;;;;2.42;1.27;;;;;;;0.99;57.44;101059.38;4913967;29;20050;-49
2021/11/10 04:23:52;;;;;;;9.23;1.70;;;;;;;1.03;57.60;101064.59;4914758;29;20535;-48
2021/11/10 04:26:20;;;;;;;;;;;;;;;1.09;57.61;101053.66;4924118;29;20491;-51
2021/11/10 04:28:47;;;;;;;1.45;1.10;;;;;;;1.11;57.54;101062.22;4916329;29;19923;-49
2021/11/10 04:31:13;;;;;;;2.00;1.67;;;;;;;1.02;57.56;101057.75;4914500;29;20793;-50
2021/11/10 04:33:42;;;;;;;5.93;2.22;;;;;;;1.10;57.42;101063.91;4914557;29;20046;-51
2021/11/10 04:36:09;;;;;;;3.15;1.50;;;;;;;1.17;57.54;101067.50;4914104;29;20411;-48
2021/11/10 04:38:38;;;;;;;2.40;1.30;;;;;;;1.19;57.32;101069.28;4913683;29;20047;-47
2021/11/10 04:41:04;;;;;;;4.10;1.25;;;;;;;1.20;57.70;101054.78;4910582;29;20044;-49
2021/11/10 04:43:30;;;;;;;3.60;1.45;;;;;;;1.20;57.65;101053.06;4937566;29;20046;-47
2021/11/10 04:46:10;;;;;;;2.42;1.25;;;;;;;1.15;57.34;101058.94;4912690;29;20047;-47
2021/11/10 04:48:37;;;;;;;2.08;1.00;;;;;;;0.97;57.61;101051.63;4936651;29;20059;-46
2021/11/10 04:51:05;;;;;;;2.25;1.30;;;;;;;0.94;57.64;101064.38;4934478;29;20070;-50
2021/11/10 04:53:35;;;;;;;3.35;1.00;;;;;;;0.94;57.95;101068.63;4916559;29;20130;-48
2021/11/10 04:56:02;;;;;;;4.43;1.40;;;;;;;0.93;58.04;101072.00;4916774;29;20515;-48
2021/11/10 04:58:28;;;;;;;3.20;1.20;;;;;;;0.95;57.67;101072.88;4914518;29;20618;-53
2021/11/10 05:00:55;;;;;;;3.78;1.20;;;;;;;0.93;57.65;101072.88;4914321;29;20044;-49
2021/11/10 05:03:23;;;;;;;2.10;1.38;;;;;;;1.06;57.68;101068.91;4883338;29;20051;-49
2021/11/10 05:05:50;;;;;;;2.70;1.35;;;;;;;1.11;57.66;101081.03;4935174;29;20053;-51
2021/11/10 05:08:16;;;;;;;4.75;1.20;;;;;;;1.20;57.86;101075.28;4919329;29;20043;-52
2021/11/10 05:10:42;;;;;;;1.40;1.02;;;;;;;1.10;57.78;101081.00;4912183;29;20135;-51
2021/11/10 05:13:09;;;;;;;4.50;1.17;;;;;;;1.07;57.83;101081.78;4930018;29;20528;-49
2021/11/10 05:15:35;;;;;;;3.88;1.27;;;;;;;0.98;58.24;101076.41;4911142;29;20432;-54
2021/11/10 05:18:06;;;;;;;1.52;1.10;;;;;;;0.83;58.33;101064.09;4913628;29;20113;-50
2021/11/10 05:20:32;;;;;;;3.00;0.80;;;;;;;0.86;58.17;101091.44;4916176;29;20515;-51
2021/11/10 05:22:59;;;;;;;1.80;1.50;;;;;;;0.67;58.04;101074.72;4913001;29;20052;-49
2021/11/10 05:25:24;;;;;;;2.28;0.88;;;;;;;0.89;57.61;101085.56;4934695;29;21863;-49
2021/11/10 05:27:51;;;;;;;4.68;1.00;;;;;;;1.01;57.78;101086.72;4933906;29;20531;-53
2021/11/10 05:30:17;;;;;;;2.47;1.15;;;;;;;1.06;57.63;101084.28;4904600;29;20051;-52
2021/11/10 05:32:43;;;;;;;2.97;1.25;;;;;;;0.91;57.70;101089.88;4913712;29;20040;-54
2021/11/10 05:35:10;;;;;;;1.67;0.75;;;;;;;0.69;58.16;101087.53;4914874;29;20044;-52
2021/11/10 05:37:36;;;;;;;1.63;1.10;;;;;;;0.57;58.50;101090.66;4937463;29;20047;-48
2021/11/10 05:40:06;;;;;;;3.85;1.10;;;;;;;0.63;58.26;101080.56;4937310;29;20424;-53
2021/11/10 05:42:32;;;;;;;5.68;1.23;;;;;;;0.69;58.13;101088.41;4952649;29;20043;-52
2021/11/10 05:44:57;;;;;;;2.85;1.02;;;;;;;0.80;57.95;101091.28;4939515;29;20508;-56
2021/11/10 05:47:24;;;;;;;4.68;1.30;;;;;;;0.59;57.70;101052.28;4935098;29;20046;-49
2021/11/10 05:49:50;;;;;;;3.28;1.13;;;;;;;1.01;57.64;101081.59;4918429;29;20047;-50
2021/11/10 05:52:17;;;;;;;2.10;1.02;;;;;;;1.04;57.01;101086.84;4934892;29;20044;-54
2021/11/10 05:54:43;;;;;;;1.50;1.00;;;;;;;0.84;57.61;101088.84;4924764;29;20044;-54
2021/11/10 05:57:13;;;;;;;3.35;1.27;;;;;;;0.90;57.82;101094.94;4916129;29;20071;-46
2021/11/10 05:59:41;;;;;;;4.28;1.30;;;;;;;0.90;57.52;101095.81;4915535;29;20131;-50
2021/11/10 06:02:07;;;;;;;5.28;1.50;;;;;;;0.99;57.22;101093.53;4916056;29;20071;-56
2021/11/10 06:04:33;;;;;;;3.13;1.48;;;;;;;1.13;57.24;101092.19;4906832;29;20040;-51
2021/11/10 06:06:59;;;;;;;3.22;1.27;;;;;;;1.12;56.68;101074.22;4934525;29;20439;-52
2021/11/10 06:09:25;;;;;;;3.33;1.30;;;;;;;1.21;56.56;101088.13;4898339;29;20059;-54
2021/11/10 06:11:51;;;;;;;9.70;2.20;;;;;;;1.47;56.50;101090.47;4887191;29;20574;-53
2021/11/10 06:14:17;;;;;;;6.65;1.75;;;;;;;1.47;56.25;101090.47;4936562;29;20075;-51
2021/11/10 06:16:43;;;;;;;3.35;1.40;;;;;;;1.12;56.56;101072.50;4934144;29;20095;-48
2021/11/10 06:19:08;;;;;;;2.38;1.58;;;;;;;1.00;56.90;101091.81;4934133;29;20066;-58
2021/11/10 06:21:34;;;;;;;9.30;2.28;;;;;;;0.85;57.27;101093.13;4917353;29;20050;-55
2021/11/10 06:24:00;;;;;;;4.95;1.70;;;;;;;0.84;57.73;101090.53;4934449;29;20146;-49
2021/11/10 06:26:26;;;;;;;4.90;1.88;;;;;;;0.75;57.65;101093.72;4916684;29;20051;-49
2021/11/10 06:28:52;;;;;;;1.55;1.45;;;;;;;0.38;58.56;101080.69;4934902;29;20074;-47
2021/11/10 06:31:18;;;;;;;3.55;2.20;;;;;;;0.34;58.63;101092.53;4920649;29;20039;-49
2021/11/10 06:33:43;;;;;;;4.22;1.83;;;;;;;0.32;58.94;101085.63;4922754;29;20051;-48
2021/11/10 06:36:09;;;;;;;6.65;2.03;;;;;;;0.42;58.90;101087.63;4933458;29;20515;-52
2021/11/10 06:38:35;;;;;;;3.65;1.50;;;;;;;1.47;57.34;101086.22;4914977;29;20535;-53
2021/11/10 06:41:01;;;;;;;5.85;1.90;;;;;;;2.87;53.37;101084.19;4933770;29;20495;-49
2021/11/10 06:43:28;;;;;;;7.40;1.58;;;;;;;3.82;51.21;101090.97;4922805;29;20546;-51
2021/11/10 06:45:55;;;;;;;4.10;1.52;;;;;;;4.24;49.05;101066.69;4938907;29;20542;-48
2021/11/10 06:48:21;;;;;;;4.32;1.45;;;;;;;5.08;47.14;101099.47;4934131;29;20040;-48
2021/11/10 06:50:46;;;;;;;4.43;1.73;;;;;;;5.69;46.36;101092.34;4916610;29;20092;-48
2021/11/10 06:53:12;;;;;;;3.33;1.40;;;;;;;6.32;44.22;101097.97;4934554;29;20055;-51
2021/11/10 06:55:38;;;;;;;7.05;1.63;;;;;;;6.62;42.79;101097.25;4924703;29;20036;-47
2021/11/10 06:58:04;;;;;;;8.13;2.40;;;;;;;7.13;42.60;101062.06;4916759;29;20523;-47
2021/11/10 07:00:31;;;;;;;2.15;1.10;;;;;;;7.81;39.77;101069.84;4932779;29;20028;-49
2021/11/10 07:02:57;;;;;;;1.73;1.30;;;;;;;8.39;39.76;101082.72;4933375;29;20043;-42
2021/11/10 07:05:23;;;;;;;3.10;1.10;;;;;;;8.45;38.50;101073.19;4916601;29;20051;-42
2021/11/10 07:07:49;;;;;;;1.80;1.10;;;;;;;7.21;40.98;101075.88;4933466;29;20138;-42
2021/11/10 07:10:16;;;;;;;1.75;1.00;;;;;;;6.22;42.66;101082.41;4916796;29;20044;-40
2021/11/10 07:12:42;;;;;;;3.33;1.10;;;;;;;6.30;42.70;101080.72;4941366;29;20050;-41
2021/11/10 07:15:08;;;;;;;2.63;1.30;;;;;;;6.76;41.99;101084.34;4918031;29;20051;-42
2021/11/10 07:17:34;;;;;;;4.18;1.58;;;;;;;6.93;42.19;101067.19;4942967;29;20127;-41
2021/11/10 07:20:01;;;;;;;2.78;1.35;;;;;;;7.91;41.00;101075.88;4934152;29;20039;-41
2021/11/10 07:22:27;;;;;;;1.88;1.00;;;;;;;8.32;39.23;101079.28;4933812;29;20039;-43
2021/11/10 07:24:52;;;;;;;4.85;1.50;;;;;;;8.40;39.07;101055.94;4934907;29;20043;-43
2021/11/10 07:27:18;;;;;;;2.97;1.55;;;;;;;8.83;37.90;101054.03;4933357;29;20142;-44
2021/11/10 07:29:44;;;;;;;4.40;1.20;;;;;;;9.44;37.59;101066.59;4933307;29;20047;-44
2021/11/10 07:32:10;;;;;;;3.05;1.95;;;;;;;10.10;35.80;101076.38;4936362;29;20388;-43
2021/11/10 07:34:36;;;;;;;3.03;1.48;;;;;;;10.68;35.20;101078.34;4929553;29;20456;-42
2021/11/10 07:37:03;;;;;;;5.75;1.90;;;;;;;10.77;35.60;101070.44;4916825;29;20044;-42
2021/11/10 07:39:31;;;;;;;5.70;1.40;;;;;;;10.37;34.55;101075.25;4911539;29;20533;-42
2021/11/10 07:41:57;;;;;;;6.00;1.83;;;;;;;10.11;35.18;101064.25;4912037;29;20070;-43
2021/11/10 07:44:23;;;;;;;2.13;1.50;;;;;;;10.69;34.96;101068.81;4896148;29;20505;-42
2021/11/10 07:46:55;;;;;;;2.60;2.00;;;;;;;10.57;34.51;101075.88;4921510;29;20043;-42
2021/11/10 07:49:22;;;;;;;3.78;1.80;;;;;;;10.87;34.62;101079.84;4914964;29;20046;-43
2021/11/10 07:51:49;;;;;;;2.47;1.38;;;;;;;10.63;34.46;101074.94;4914756;29;20052;-44
2021/11/10 07:54:15;;;;;;;2.35;1.23;;;;;;;9.11;35.96;101078.91;4931484;29;20074;-41
2021/11/10 07:56:41;;;;;;;4.10;1.30;;;;;;;7.66;38.68;101088.84;4930901;29;20130;-42
2021/11/10 07:59:07;;;;;;;3.90;1.70;;;;;;;6.88;40.90;101080.97;4919474;29;20044;-46
2021/11/10 08:01:33;;;;;;;2.58;1.17;;;;;;;6.13;42.50;101092.66;4912494;29;20118;-42
2021/11/10 08:04:02;;;;;;;5.00;2.30;;;;;;;5.34;43.81;101087.72;4919075;29;20472;-43
2021/11/10 08:06:29;;;;;;;4.15;1.50;;;;;;;5.13;44.56;101072.91;4931233;29;20458;-43
2021/11/10 08:08:55;;;;;;;4.95;1.60;;;;;;;5.01;45.54;101075.38;4914478;29;20128;-43
2021/11/10 08:11:21;;;;;;;4.40;1.80;;;;;;;4.92;45.82;101093.28;4929839;29;20140;-43
2021/11/10 08:13:47;;;;;;;4.60;1.80;;;;;;;5.08;45.83;101089.16;4913906;29;20052;-43
2021/11/10 08:16:13;;;;;;;3.28;1.95;;;;;;;4.44;47.18;101101.31;4912197;29;20464;-44
2021/11/10 08:18:39;;;;;;;6.53;3.00;;;;;;;4.25;47.73;101092.47;4912240;29;20393;-42
2021/11/10 08:21:05;;;;;;;6.60;2.03;;;;;;;4.06;48.74;101082.78;4914887;29;20041;-43
2021/11/10 08:23:32;;;;;;;5.93;2.13;;;;;;;3.91;49.36;101084.25;4914805;29;20095;-42
2021/11/10 08:25:58;;;;;;;3.65;2.13;;;;;;;3.71;49.85;101095.09;4904433;29;20043;-44
2021/11/10 08:28:25;;;;;;;6.88;2.65;;;;;;;3.48;50.77;101088.72;4912137;29;20044;-43
2021/11/10 08:30:51;;;;;;;5.82;2.50;;;;;;;3.28;51.26;101079.78;4914053;29;20047;-43
2021/11/10 08:33:18;;;;;;;10.75;2.80;;;;;;;3.25;51.45;101072.00;4912713;29;20236;-41
2021/11/10 08:35:45;;;;;;;6.78;2.40;;;;;;;3.63;50.86;101083.81;4912632;29;20071;-43
2021/11/10 08:38:11;;;;;;;6.88;2.42;;;;;;;3.57;51.29;101081.13;4927610;29;20049;-42
2021/11/10 08:40:37;;;;;;;8.18;2.45;;;;;;;3.73;51.13;101057.41;4930870;29;20035;-42
2021/11/10 08:43:09;;;;;;;3.95;2.20;;;;;;;4.14;50.45;101080.28;4929682;29;20040;-43
2021/11/10 08:45:36;;;;;;;5.50;1.67;;;;;;;4.03;50.54;101077.56;4930187;29;20501;-42
2021/11/10 08:48:07;;;;;;;4.03;1.77;;;;;;;4.03;51.19;101081.88;4930557;29;20071;-43
2021/11/10 08:50:35;;;;;;;2.67;1.70;;;;;;;4.33;50.51;101082.28;4923478;29;20068;-44
2021/11/10 08:53:02;;;;;;;6.82;2.25;;;;;;;4.81;49.35;101073.44;4915139;29;20063;-44
2021/11/10 08:55:29;;;;;;;5.43;2.00;;;;;;;4.77;49.97;101080.25;4898779;29;20051;-43
2021/11/10 08:57:55;;;;;;;6.35;2.15;;;;;;;4.39;50.25;101043.75;4913512;29;20084;-45
2021/11/10 09:00:24;;;;;;;3.80;1.88;;;;;;;4.60;50.56;101069.75;4913475;29;20047;-45
2021/11/10 09:02:50;;;;;;;2.42;1.70;;;;;;;4.95;49.88;101074.44;4915109;29;20104;-42
2021/11/10 09:05:16;;;;;;;6.53;2.08;;;;;;;5.06;49.55;101070.25;4931758;29;20353;-44
2021/11/10 09:07:43;;;;;;;8.25;2.20;;;;;;;5.53;48.52;101083.59;4935787;29;20108;-43
2021/11/10 09:10:13;;;;;;;2.97;1.70;;;;;;;5.87;47.67;101088.19;4935965;29;20147;-46
2021/11/10 09:12:39;;;;;;;2.75;2.10;;;;;;;5.88;47.30;101079.59;4924094;29;20040;-42
2021/11/10 09:15:08;;;;;;;3.60;2.20;;;;;;;6.68;46.08;101074.00;4918176;29;20051;-44
2021/11/10 09:17:35;;;;;;;3.72;2.00;;;;;;;7.98;43.28;101075.88;4935603;29;20150;-42
2021/11/10 09:20:05;;;;;;;4.88;1.90;;;;;;;8.48;41.36;101077.50;4934287;29;20047;-44
2021/11/10 09:22:31;;;;;;;3.28;1.80;;;;;;;8.31;41.93;101072.38;4935719;29;20044;-43
2021/11/10 09:24:58;;;;;;;3.72;1.83;;;;;;;8.84;41.89;101056.63;4935399;29;20476;-43
2021/11/10 09:27:24;;;;;;;3.17;2.13;;;;;;;10.09;39.50;101068.63;4935635;29;20122;-46
2021/11/10 09:29:50;;;;;;;4.97;2.10;;;;;;;9.77;38.83;101054.19;4924152;29;20420;-44
2021/11/10 09:32:16;;;;;;;5.43;2.10;;;;;;;9.62;39.44;101050.88;4914874;29;20067;-44
2021/11/10 09:34:42;;;;;;;4.10;2.20;;;;;;;9.28;39.82;101065.84;4904380;29;20507;-46
2021/11/10 09:37:08;;;;;;;3.33;1.70;;;;;;;7.69;42.37;101054.34;4934998;29;20079;-42
2021/11/10 09:39:34;;;;;;;4.70;2.08;;;;;;;6.47;44.58;101063.59;4918383;29;20424;-42
2021/11/10 09:42:00;;;;;;;3.85;1.90;;;;;;;5.45;46.85;101039.66;4917559;29;20039;-44
2021/11/10 09:44:26;;;;;;;3.90;1.70;;;;;;;5.07;48.34;101056.53;4918087;29;20072;-43
2021/11/10 09:46:55;;;;;;;7.82;2.47;;;;;;;4.60;49.34;101054.31;4934769;29;20048;-43
2021/11/10 09:49:22;;;;;;;5.70;2.00;;;;;;;4.06;50.95;101039.03;4918317;29;20043;-42
2021/11/10 09:51:49;;;;;;;4.57;2.10;;;;;;;3.93;51.82;101051.66;4917918;29;20523;-43
2021/11/10 09:54:15;;;;;;;4.43;1.85;;;;;;;3.31;53.30;101055.00;4911086;29;20091;-43
2021/11/10 09:56:47;;;;;;;4.05;1.55;;;;;;;2.95;54.40;101033.81;4916689;29;20063;-42
2021/11/10 09:59:13;;;;;;;4.15;2.22;;;;;;;2.88;54.87;101045.66;4934066;29;20090;-42
2021/11/10 10:01:39;;;;;;;8.00;2.13;;;;;;;2.73;55.65;101041.94;4935114;29;20035;-45
2021/11/10 10:04:08;;;;;;;4.55;2.08;;;;;;;2.76;55.63;101040.31;4934891;29;20558;-42
2021/11/10 10:06:35;;;;;;;5.53;2.08;;;;;;;2.77;55.59;101039.50;4934523;29;20051;-43
2021/11/10 10:09:01;;;;;;;4.75;1.73;;;;;;;2.82;55.60;101045.56;4932715;29;20082;-42
2021/11/10 10:11:28;;;;;;;6.50;2.45;;;;;;;2.73;55.93;101060.78;4917603;29;20044;-43
2021/11/10 10:13:54;;;;;;;3.95;2.08;;;;;;;2.60;56.35;101046.00;4934041;29;20043;-43
2021/11/10 10:16:22;;;;;;;4.50;1.60;;;;;;;2.44;57.13;101037.13;4933118;29;20074;-44
2021/11/10 10:18:49;;;;;;;2.37;1.50;;;;;;;2.37;56.92;101026.69;4898820;29;20036;-46
2021/11/10 10:21:18;;;;;;;3.13;1.73;;;;;;;2.31;57.39;101036.81;4899203;29;20288;-44
2021/11/10 10:23:50;;;;;;;6.53;1.90;;;;;;;2.37;57.27;101031.81;4899242;29;20066;-43
2021/11/10 10:26:26;;;;;;;5.45;2.20;;;;;;;2.64;57.41;101023.81;4898985;29;20123;-43
2021/11/10 10:28:55;;;;;;;7.80;2.13;;;;;;;4.11;54.50;101023.63;4926077;29;20117;-43
2021/11/10 10:31:24;;;;;;;11.63;2.50;;;;;;;5.55;50.75;101020.84;4933139;29;20051;-42
2021/11/10 10:33:57;;;;;;;6.22;2.35;;;;;;;6.78;48.13;101024.06;4917312;29;20047;-42
2021/11/10 10:36:25;;;;;;;7.75;2.80;;;;;;;7.87;46.29;101014.59;4917126;29;20530;-44
2021/11/10 10:38:53;;;;;;;4.20;1.80;;;;;;;8.51;42.47;101017.88;4913686;29;20072;-43
2021/11/10 10:41:22;;;;;;;7.13;2.20;;;;;;;8.55;41.72;101014.41;4923991;29;20048;-42
2021/11/10 10:43:54;;;;;;;;;;;;;;;8.88;41.24;101022.00;4915611;29;20066;-43
2021/11/10 10:46:31;;;;;;;5.72;1.98;;;;;;;9.33;40.30;101022.53;4911791;29;20506;-43
2021/11/10 10:49:20;;;;;;;4.68;2.13;;;;;;;10.12;39.17;101019.19;4916154;29;20584;-44
2021/11/10 10:51:48;;;;;;;5.95;1.98;;;;;;;10.76;38.18;101013.22;4933683;29;20047;-44
2021/11/10 10:54:14;;;;;;;4.35;2.33;;;;;;;10.22;37.41;101023.44;4927377;29;20080;-44
2021/11/10 10:56:44;;;;;;;5.72;1.77;;;;;;;9.76;38.26;101008.31;4930843;29;20044;-42
2021/11/10 10:59:11;;;;;;;5.00;1.80;;;;;;;9.33;38.37;101004.38;4916772;29;20426;-44
2021/11/10 11:01:40;;;;;;;5.65;2.67;;;;;;;9.76;38.35;100982.34;4900543;29;20130;-44
2021/11/10 11:04:10;;;;;;;7.50;2.40;;;;;;;10.09;37.67;100996.72;4933265;29;20435;-42
2021/11/10 11:06:42;;;;;;;3.55;1.83;;;;;;;9.84;37.80;100991.81;4901359;29;20043;-43
2021/11/10 11:09:11;;;;;;;9.18;2.65;;;;;;;9.63;38.49;100977.31;4934055;29;20054;-42
2021/11/10 11:11:39;;;;;;;4.47;2.17;;;;;;;10.11;38.08;100962.91;4933828;29;20377;-45
2021/11/10 11:14:15;;;;;;;4.50;2.05;;;;;;;10.44;36.84;100978.13;4897393;29;20424;-43
2021/11/10 11:16:42;;;;;;;5.15;2.38;;;;;;;10.39;37.28;100953.91;4913764;29;20404;-43
2021/11/10 11:19:19;;;;;;;8.95;2.30;;;;;;;10.63;36.37;100953.56;4932160;29;20055;-42
2021/11/10 11:21:55;;;;;;;4.13;2.25;;;;;;;11.21;34.70;100957.88;4933684;29;20190;-44
2021/11/10 11:24:36;;;;;;;3.63;1.98;;;;;;;11.04;34.66;100962.50;4933279;29;20543;-43
2021/11/10 11:27:15;;;;;;;4.57;2.13;;;;;;;10.85;34.97;100955.84;4933454;29;20468;-44
2021/11/10 11:29:43;;;;;;;4.05;2.00;;;;;;;10.57;35.52;100953.66;4927702;29;20130;-44
2021/11/10 11:32:25;;;;;;;5.28;1.80;;;;;;;10.17;35.49;100960.25;4914309;29;20048;-44
2021/11/10 11:35:22;;;;;;;6.55;1.92;;;;;;;9.79;36.67;100956.31;4925103;29;20150;-43
2021/11/10 11:37:49;;;;;;;4.00;2.15;;;;;;;9.92;36.04;100953.59;4922947;29;20172;-42